createdAt,value
2019-03-05T00:00:44.240Z,985.89
2019-03-05T00:01:55.598Z,985.74
2019-03-05T00:03:08.405Z,985.67
2019-03-05T00:04:20.275Z,985.65
2019-03-05T00:05:31.018Z,985.53
2019-03-05T00:06:42.286Z,985.57
2019-03-05T00:07:54.839Z,985.55
2019-03-05T00:09:07.533Z,985.47
2019-03-05T00:10:28.642Z,985.33
2019-03-05T00:11:40.178Z,985.34
2019-03-05T00:14:05.731Z,985.27
2019-03-05T00:15:17.970Z,985.18
2019-03-05T00:16:29.201Z,985.16
2019-03-05T00:17:41.475Z,985.17
2019-03-05T00:18:52.753Z,985.20
2019-03-05T00:20:04.046Z,985.18
2019-03-05T00:21:15.317Z,985.16
2019-03-05T00:22:26.552Z,985.10
2019-03-05T00:23:37.866Z,985.01
2019-03-05T00:24:49.125Z,985.01
2019-03-05T00:26:02.915Z,984.88
2019-03-05T00:27:14.169Z,984.94
2019-03-05T00:28:25.449Z,984.86
2019-03-05T00:29:36.714Z,984.89
2019-03-05T00:30:48.004Z,984.85
2019-03-05T00:31:59.198Z,984.77
2019-03-05T00:33:10.439Z,984.73
2019-03-05T00:34:21.707Z,984.68
2019-03-05T00:35:33.011Z,984.62
2019-03-05T00:36:45.282Z,984.62
2019-03-05T00:37:57.674Z,984.63
2019-03-05T00:39:09.945Z,984.62
2019-03-05T00:40:22.170Z,984.52
2019-03-05T00:41:34.415Z,984.49
2019-03-05T00:42:45.665Z,984.45
2019-03-05T00:43:56.895Z,984.48
2019-03-05T00:45:08.148Z,984.50
2019-03-05T00:46:20.417Z,984.45
2019-03-05T00:47:31.672Z,984.44
2019-03-05T00:48:42.443Z,984.37
2019-03-05T00:49:54.260Z,984.39
2019-03-05T00:51:06.513Z,984.43
2019-03-05T00:52:18.795Z,984.50
2019-03-05T00:53:30.046Z,984.35
2019-03-05T00:54:42.312Z,984.39
2019-03-05T00:55:54.585Z,984.44
2019-03-05T00:57:06.853Z,984.37
2019-03-05T00:58:18.112Z,984.37
2019-03-05T00:59:30.408Z,984.30
2019-03-05T01:00:41.653Z,984.35
2019-03-05T01:01:52.902Z,984.23
2019-03-05T01:03:05.216Z,984.21
2019-03-05T01:04:16.427Z,984.15
2019-03-05T01:05:27.687Z,984.03
2019-03-05T01:06:38.987Z,984.07
2019-03-05T01:07:50.293Z,983.94
2019-03-05T01:09:01.457Z,984.00
2019-03-05T01:10:12.708Z,984.00
2019-03-05T01:11:24.007Z,984.00
2019-03-05T01:12:49.675Z,983.91
2019-03-05T01:14:00.446Z,983.85
2019-03-05T01:15:11.708Z,983.80
2019-03-05T01:16:22.946Z,983.87
2019-03-05T01:17:34.219Z,983.98
2019-03-05T01:18:45.475Z,983.79
2019-03-05T01:19:56.708Z,983.87
2019-03-05T01:21:08.959Z,983.78
2019-03-05T01:22:20.189Z,983.79
2019-03-05T01:23:31.474Z,983.71
2019-03-05T01:24:42.714Z,983.84
2019-03-05T01:25:54.001Z,983.83
2019-03-05T01:27:06.226Z,983.84
2019-03-05T01:28:17.478Z,983.91
2019-03-05T01:29:28.724Z,983.86
2019-03-05T01:30:40.017Z,983.89
2019-03-05T01:31:51.256Z,983.82
2019-03-05T01:33:02.554Z,983.79
2019-03-05T01:34:13.805Z,983.82
2019-03-05T01:35:25.076Z,983.88
2019-03-05T01:36:36.308Z,983.88
2019-03-05T01:37:47.675Z,983.81
2019-03-05T01:38:58.905Z,983.92
2019-03-05T01:40:10.152Z,983.90
2019-03-05T01:41:22.406Z,983.93
2019-03-05T01:42:55.684Z,984.05
2019-03-05T01:44:11.870Z,984.02
2019-03-05T01:45:24.160Z,984.10
2019-03-05T01:46:35.407Z,984.16
2019-03-05T01:47:47.682Z,984.18
2019-03-05T01:48:58.897Z,984.19
2019-03-05T01:50:11.225Z,984.23
2019-03-05T01:51:22.452Z,984.30
2019-03-05T01:52:33.764Z,984.25
2019-03-05T01:53:46.025Z,984.33
2019-03-05T01:54:57.276Z,984.42
2019-03-05T01:56:09.522Z,984.41
2019-03-05T01:57:20.286Z,984.48
2019-03-05T01:58:31.504Z,984.51
2019-03-05T01:59:42.809Z,984.55
2019-03-05T02:00:54.059Z,984.57
2019-03-05T02:02:04.783Z,984.63
2019-03-05T02:03:16.073Z,984.65
2019-03-05T02:04:27.318Z,984.64
2019-03-05T02:05:38.558Z,984.66
2019-03-05T02:06:49.834Z,984.73
2019-03-05T02:08:01.069Z,984.74
2019-03-05T02:09:12.296Z,984.77
2019-03-05T02:10:23.577Z,984.77
2019-03-05T02:11:34.782Z,984.86
2019-03-05T02:12:46.073Z,984.89
2019-03-05T02:13:57.263Z,984.95
2019-03-05T02:15:08.699Z,985.03
2019-03-05T02:16:19.893Z,985.08
2019-03-05T02:17:31.162Z,985.20
2019-03-05T02:18:42.408Z,985.14
2019-03-05T02:19:54.654Z,985.17
2019-03-05T02:21:05.922Z,985.24
2019-03-05T02:22:17.184Z,985.25
2019-03-05T02:23:28.409Z,985.24
2019-03-05T02:24:39.694Z,985.26
2019-03-05T02:25:50.940Z,985.32
2019-03-05T02:27:03.240Z,985.38
2019-03-05T02:28:14.442Z,985.44
2019-03-05T02:29:25.690Z,985.47
2019-03-05T02:30:36.932Z,985.44
2019-03-05T02:31:48.190Z,985.56
2019-03-05T02:32:59.454Z,985.58
2019-03-05T02:34:10.671Z,985.69
2019-03-05T02:35:21.972Z,985.74
2019-03-05T02:36:33.207Z,985.74
2019-03-05T02:37:44.489Z,985.83
2019-03-05T02:38:55.709Z,985.89
2019-03-05T02:40:06.964Z,985.87
2019-03-05T02:41:18.195Z,985.90
2019-03-05T02:42:29.457Z,985.96
2019-03-05T02:43:40.680Z,986.00
2019-03-05T02:44:51.904Z,986.00
2019-03-05T02:46:03.209Z,986.03
2019-03-05T02:47:14.388Z,986.08
2019-03-05T02:48:25.647Z,986.07
2019-03-05T02:49:37.924Z,986.09
2019-03-05T02:50:49.121Z,986.07
2019-03-05T02:52:00.437Z,986.09
2019-03-05T02:53:11.649Z,986.10
2019-03-05T02:54:22.946Z,986.13
2019-03-05T02:55:34.142Z,986.14
2019-03-05T02:56:45.462Z,986.20
2019-03-05T02:57:56.670Z,986.18
2019-03-05T02:59:08.919Z,986.23
2019-03-05T03:00:20.188Z,986.31
2019-03-05T03:01:31.383Z,986.31
2019-03-05T03:02:43.646Z,986.25
2019-03-05T03:03:54.399Z,986.26
2019-03-05T03:05:05.639Z,986.22
2019-03-05T03:06:17.876Z,986.21
2019-03-05T03:07:29.182Z,986.30
2019-03-05T03:08:41.376Z,986.35
2019-03-05T03:09:52.693Z,986.41
2019-03-05T03:11:03.907Z,986.45
2019-03-05T03:12:16.110Z,986.41
2019-03-05T03:13:28.398Z,986.44
2019-03-05T03:14:39.601Z,986.41
2019-03-05T03:15:50.866Z,986.45
2019-03-05T03:17:02.079Z,986.37
2019-03-05T03:18:13.360Z,986.43
2019-03-05T03:19:24.138Z,986.41
2019-03-05T03:20:35.394Z,986.37
2019-03-05T03:21:47.645Z,986.40
2019-03-05T03:22:58.864Z,986.36
2019-03-05T03:24:10.100Z,986.29
2019-03-05T03:25:21.407Z,986.34
2019-03-05T03:26:33.639Z,986.36
2019-03-05T03:27:44.888Z,986.33
2019-03-05T03:28:56.135Z,986.29
2019-03-05T03:30:07.332Z,986.31
2019-03-05T03:31:18.651Z,986.17
2019-03-05T03:32:29.842Z,986.23
2019-03-05T03:33:41.135Z,986.21
2019-03-05T03:34:52.360Z,986.16
2019-03-05T03:36:03.626Z,986.17
2019-03-05T03:37:15.830Z,986.15
2019-03-05T03:38:28.127Z,986.23
2019-03-05T03:39:38.877Z,986.16
2019-03-05T03:40:51.153Z,986.22
2019-03-05T03:42:03.490Z,986.18
2019-03-05T03:43:15.597Z,986.27
2019-03-05T03:44:26.908Z,986.26
2019-03-05T03:45:38.175Z,986.23
2019-03-05T03:46:49.472Z,986.20
2019-03-05T03:48:00.650Z,986.13
2019-03-05T03:49:11.985Z,986.09
2019-03-05T03:50:23.154Z,986.06
2019-03-05T03:51:34.403Z,986.06
2019-03-05T03:52:45.623Z,985.98
2019-03-05T03:53:56.905Z,985.99
2019-03-05T03:55:08.128Z,985.95
2019-03-05T03:56:18.966Z,985.97
2019-03-05T03:57:31.223Z,985.97
2019-03-05T03:58:43.481Z,985.96
2019-03-05T03:59:54.690Z,986.00
2019-03-05T04:01:07.273Z,985.97
2019-03-05T04:02:17.224Z,985.97
2019-03-05T04:03:28.442Z,985.93
2019-03-05T04:04:40.708Z,985.95
2019-03-05T04:05:51.980Z,985.93
2019-03-05T04:07:03.290Z,986.01
2019-03-05T04:08:14.695Z,985.94
2019-03-05T04:09:25.983Z,985.89
2019-03-05T04:10:37.222Z,985.94
2019-03-05T04:11:49.461Z,985.94
2019-03-05T04:13:00.694Z,986.00
2019-03-05T04:14:11.908Z,986.07
2019-03-05T04:15:24.056Z,986.04
2019-03-05T04:16:35.315Z,986.10
2019-03-05T04:17:46.732Z,986.13
2019-03-05T04:18:57.926Z,986.22
2019-03-05T04:20:09.198Z,986.19
2019-03-05T04:21:20.470Z,986.24
2019-03-05T04:22:31.736Z,986.24
2019-03-05T04:23:42.993Z,986.35
2019-03-05T04:24:55.222Z,986.35
2019-03-05T04:26:06.637Z,986.38
2019-03-05T04:27:17.889Z,986.48
2019-03-05T04:28:29.137Z,986.51
2019-03-05T04:29:40.469Z,986.63
2019-03-05T04:30:52.665Z,986.66
2019-03-05T04:32:03.923Z,986.68
2019-03-05T04:33:16.231Z,986.75
2019-03-05T04:34:27.452Z,986.83
2019-03-05T04:35:38.664Z,986.86
2019-03-05T04:36:50.929Z,986.89
2019-03-05T04:38:02.229Z,986.85
2019-03-05T04:39:13.445Z,986.89
2019-03-05T04:40:25.192Z,986.91
2019-03-05T04:41:37.579Z,986.92
2019-03-05T04:42:49.705Z,986.95
2019-03-05T04:44:01.299Z,986.97
2019-03-05T04:45:13.572Z,987.02
2019-03-05T04:46:24.866Z,987.00
2019-03-05T04:47:37.057Z,986.99
2019-03-05T04:48:49.298Z,986.92
2019-03-05T04:50:01.529Z,986.87
2019-03-05T04:51:12.832Z,986.92
2019-03-05T04:52:25.114Z,986.89
2019-03-05T04:53:37.299Z,986.83
2019-03-05T04:54:49.526Z,986.83
2019-03-05T04:56:00.797Z,986.85
2019-03-05T04:57:12.065Z,986.84
2019-03-05T04:58:23.305Z,986.83
2019-03-05T04:59:34.558Z,986.74
2019-03-05T05:00:45.815Z,986.76
2019-03-05T05:01:57.029Z,986.75
2019-03-05T05:03:09.280Z,986.72
2019-03-05T05:04:20.662Z,986.77
2019-03-05T05:05:32.927Z,986.75
2019-03-05T05:06:44.131Z,986.80
2019-03-05T05:07:55.451Z,986.74
2019-03-05T05:09:06.696Z,986.77
2019-03-05T05:10:17.923Z,986.75
2019-03-05T05:11:29.136Z,986.77
2019-03-05T05:12:40.347Z,986.70
2019-03-05T05:13:51.073Z,986.73
2019-03-05T05:15:02.281Z,986.66
2019-03-05T05:16:13.509Z,986.69
2019-03-05T05:17:24.716Z,986.67
2019-03-05T05:18:35.954Z,986.71
2019-03-05T05:19:47.161Z,986.68
2019-03-05T05:20:58.380Z,986.66
2019-03-05T05:22:09.595Z,986.66
2019-03-05T05:23:20.804Z,986.69
2019-03-05T05:24:32.038Z,986.67
2019-03-05T05:25:43.263Z,986.67
2019-03-05T05:26:54.619Z,986.77
2019-03-05T05:28:05.855Z,986.70
2019-03-05T05:29:18.073Z,986.74
2019-03-05T05:30:29.297Z,986.74
2019-03-05T05:31:40.509Z,986.77
2019-03-05T05:32:51.727Z,986.84
2019-03-05T05:34:02.941Z,986.82
2019-03-05T05:35:14.157Z,986.88
2019-03-05T05:36:25.364Z,986.87
2019-03-05T05:37:36.630Z,986.93
2019-03-05T05:38:47.855Z,986.84
2019-03-05T05:39:59.075Z,986.84
2019-03-05T05:41:10.304Z,986.82
2019-03-05T05:42:21.513Z,986.86
2019-03-05T05:43:32.730Z,986.82
2019-03-05T05:44:43.959Z,986.87
2019-03-05T05:45:55.184Z,986.84
2019-03-05T05:47:06.394Z,986.92
2019-03-05T05:48:17.606Z,986.82
2019-03-05T05:49:29.134Z,986.89
2019-03-05T05:50:39.859Z,986.86
2019-03-05T05:51:51.064Z,986.87
2019-03-05T05:53:02.270Z,986.85
2019-03-05T05:54:13.495Z,986.82
2019-03-05T05:55:24.703Z,986.78
2019-03-05T05:56:35.919Z,986.79
2019-03-05T05:57:47.125Z,986.74
2019-03-05T05:58:58.358Z,986.81
2019-03-05T06:00:09.565Z,986.81
2019-03-05T06:01:20.794Z,986.76
2019-03-05T06:02:32.006Z,986.78
2019-03-05T06:03:43.252Z,986.77
2019-03-05T06:04:54.629Z,986.72
2019-03-05T06:06:05.847Z,986.74
2019-03-05T06:07:17.075Z,986.73
2019-03-05T06:08:28.293Z,986.74
2019-03-05T06:09:39.523Z,986.76
2019-03-05T06:10:52.777Z,986.72
2019-03-05T06:12:02.247Z,986.70
2019-03-05T06:13:13.459Z,986.65
2019-03-05T06:14:24.698Z,986.66
2019-03-05T06:15:35.908Z,986.67
2019-03-05T06:16:47.125Z,986.64
2019-03-05T06:17:58.336Z,986.63
2019-03-05T06:19:09.576Z,986.61
2019-03-05T06:20:20.802Z,986.71
2019-03-05T06:21:32.018Z,986.56
2019-03-05T06:22:43.238Z,986.53
2019-03-05T06:23:54.446Z,986.56
2019-03-05T06:25:05.681Z,986.56
2019-03-05T06:26:16.898Z,986.54
2019-03-05T06:27:28.120Z,986.51
2019-03-05T06:28:39.361Z,986.53
2019-03-05T06:29:50.624Z,986.49
2019-03-05T06:31:01.853Z,986.40
2019-03-05T06:32:13.065Z,986.44
2019-03-05T06:33:24.296Z,986.44
2019-03-05T06:34:35.511Z,986.33
2019-03-05T06:35:46.742Z,986.38
2019-03-05T06:36:57.963Z,986.31
2019-03-05T06:38:09.175Z,986.33
2019-03-05T06:39:20.387Z,986.32
2019-03-05T06:40:31.621Z,986.36
2019-03-05T06:41:42.847Z,986.27
2019-03-05T06:42:55.059Z,986.31
2019-03-05T06:44:06.310Z,986.45
2019-03-05T06:45:17.547Z,986.43
2019-03-05T06:46:28.763Z,986.34
2019-03-05T06:47:40.068Z,986.47
2019-03-05T06:48:51.208Z,986.28
2019-03-05T06:50:02.442Z,986.36
2019-03-05T06:51:13.675Z,986.36
2019-03-05T06:52:24.903Z,986.36
2019-03-05T06:53:36.118Z,986.38
2019-03-05T06:54:47.340Z,986.37
2019-03-05T06:55:58.630Z,986.34
2019-03-05T06:57:09.863Z,986.41
2019-03-05T06:58:21.092Z,986.44
2019-03-05T06:59:32.323Z,986.46
2019-03-05T07:00:43.557Z,986.41
2019-03-05T07:01:54.772Z,986.41
2019-03-05T07:03:06.006Z,986.39
2019-03-05T07:04:17.248Z,986.39
2019-03-05T07:05:29.108Z,986.27
2019-03-05T07:06:39.704Z,986.23
2019-03-05T07:07:50.926Z,986.27
2019-03-05T07:09:02.166Z,986.27
2019-03-05T07:10:13.392Z,986.23
2019-03-05T07:11:24.629Z,986.27
2019-03-05T07:12:35.863Z,986.24
2019-03-05T07:13:47.154Z,986.21
2019-03-05T07:14:58.306Z,986.22
2019-03-05T07:16:09.531Z,986.23
2019-03-05T07:17:20.764Z,986.29
2019-03-05T07:18:32.988Z,986.20
2019-03-05T07:19:44.209Z,986.26
2019-03-05T07:20:55.449Z,986.28
2019-03-05T07:22:06.676Z,986.31
2019-03-05T07:23:17.901Z,986.30
2019-03-05T07:24:29.130Z,986.36
2019-03-05T07:25:40.373Z,986.30
2019-03-05T07:26:51.605Z,986.27
2019-03-05T07:28:02.830Z,986.18
2019-03-05T07:29:14.065Z,986.20
2019-03-05T07:30:25.291Z,986.20
2019-03-05T07:31:36.626Z,986.20
2019-03-05T07:32:48.866Z,986.16
2019-03-05T07:34:00.090Z,986.20
2019-03-05T07:35:11.328Z,986.11
2019-03-05T07:36:22.634Z,986.01
2019-03-05T07:37:33.880Z,986.01
2019-03-05T07:38:45.132Z,985.94
2019-03-05T07:39:56.371Z,985.85
2019-03-05T07:41:07.616Z,985.71
2019-03-05T07:42:18.878Z,985.54
2019-03-05T07:43:36.357Z,985.44
2019-03-05T07:44:42.365Z,985.39
2019-03-05T07:45:53.632Z,985.31
2019-03-05T07:47:04.880Z,985.28
2019-03-05T07:48:17.123Z,985.32
2019-03-05T07:49:28.362Z,985.30
2019-03-05T07:50:39.613Z,985.34
2019-03-05T07:51:50.855Z,985.35
2019-03-05T07:53:02.114Z,985.38
2019-03-05T07:54:13.361Z,985.46
2019-03-05T07:55:24.622Z,985.45
2019-03-05T07:56:35.888Z,985.48
2019-03-05T07:57:47.152Z,985.51
2019-03-05T07:58:59.394Z,985.55
2019-03-05T08:00:10.638Z,985.53
2019-03-05T08:01:22.737Z,985.59
2019-03-05T08:02:33.128Z,985.60
2019-03-05T08:03:44.386Z,985.64
2019-03-05T08:04:55.624Z,985.66
2019-03-05T08:06:06.864Z,985.59
2019-03-05T08:07:18.182Z,985.57
2019-03-05T08:08:29.370Z,985.53
2019-03-05T08:09:40.127Z,985.53
2019-03-05T08:10:51.369Z,985.65
2019-03-05T08:12:02.620Z,985.52
2019-03-05T08:13:13.874Z,985.48
2019-03-05T08:14:25.126Z,985.47
2019-03-05T08:15:36.383Z,985.53
2019-03-05T08:16:47.635Z,985.44
2019-03-05T08:17:58.880Z,985.29
2019-03-05T08:19:10.141Z,985.28
2019-03-05T08:20:21.379Z,985.28
2019-03-05T08:21:32.635Z,985.26
2019-03-05T08:22:43.880Z,985.23
2019-03-05T08:23:55.123Z,985.13
2019-03-05T08:25:06.381Z,985.23
2019-03-05T08:26:17.634Z,985.18
2019-03-05T08:27:28.889Z,985.17
2019-03-05T08:28:40.150Z,985.28
2019-03-05T08:29:51.391Z,985.29
2019-03-05T08:31:02.148Z,985.31
2019-03-05T08:32:13.413Z,985.30
2019-03-05T08:33:24.695Z,985.30
2019-03-05T08:34:35.932Z,985.41
2019-03-05T08:35:47.183Z,985.37
2019-03-05T08:36:58.427Z,985.40
2019-03-05T08:38:09.688Z,985.47
2019-03-05T08:39:20.929Z,985.41
2019-03-05T08:40:32.180Z,985.51
2019-03-05T08:41:43.433Z,985.61
2019-03-05T08:42:54.677Z,985.67
2019-03-05T08:44:05.936Z,985.77
2019-03-05T08:45:28.436Z,985.93
2019-03-05T08:46:28.424Z,986.02
2019-03-05T08:47:39.682Z,986.11
2019-03-05T08:48:50.926Z,986.28
2019-03-05T08:50:02.168Z,986.34
2019-03-05T08:51:13.417Z,986.33
2019-03-05T08:52:24.666Z,986.37
2019-03-05T08:53:35.933Z,986.43
2019-03-05T08:54:47.173Z,986.45
2019-03-05T08:55:58.421Z,986.53
2019-03-05T08:57:09.668Z,986.52
2019-03-05T08:58:20.928Z,986.52
2019-03-05T08:59:32.759Z,986.62
2019-03-05T09:00:43.414Z,986.66
2019-03-05T09:01:54.667Z,986.66
2019-03-05T09:03:05.908Z,986.70
2019-03-05T09:04:17.156Z,986.79
2019-03-05T09:05:28.404Z,986.78
2019-03-05T09:06:39.643Z,986.74
2019-03-05T09:07:50.892Z,986.73
2019-03-05T09:09:02.139Z,986.70
2019-03-05T09:10:13.376Z,986.79
2019-03-05T09:11:24.622Z,986.81
2019-03-05T09:12:35.878Z,986.75
2019-03-05T09:13:47.118Z,986.79
2019-03-05T09:14:58.361Z,986.70
2019-03-05T09:16:09.637Z,986.71
2019-03-05T09:17:20.886Z,986.77
2019-03-05T09:18:33.145Z,986.78
2019-03-05T09:19:44.397Z,986.79
2019-03-05T09:20:55.635Z,986.81
2019-03-05T09:22:06.885Z,986.84
2019-03-05T09:23:18.131Z,987.00
2019-03-05T09:24:28.892Z,986.89
2019-03-05T09:25:40.145Z,986.96
2019-03-05T09:26:51.790Z,986.95
2019-03-05T09:28:02.646Z,987.08
2019-03-05T09:29:13.899Z,987.07
2019-03-05T09:30:25.156Z,987.11
2019-03-05T09:31:36.410Z,987.24
2019-03-05T09:32:47.650Z,987.41
2019-03-05T09:33:58.897Z,987.38
2019-03-05T09:35:10.156Z,987.33
2019-03-05T09:36:21.408Z,987.39
2019-03-05T09:37:32.654Z,987.46
2019-03-05T09:38:43.908Z,987.49
2019-03-05T09:39:55.156Z,987.37
2019-03-05T09:41:06.411Z,987.44
2019-03-05T09:42:17.664Z,987.42
2019-03-05T09:43:28.919Z,987.44
2019-03-05T09:44:40.161Z,987.41
2019-03-05T09:45:51.422Z,987.42
2019-03-05T09:47:02.684Z,987.49
2019-03-05T09:48:13.924Z,987.49
2019-03-05T09:49:25.181Z,987.53
2019-03-05T09:50:36.447Z,987.62
2019-03-05T09:51:47.691Z,987.64
2019-03-05T09:52:58.932Z,987.63
2019-03-05T09:54:10.190Z,987.66
2019-03-05T09:55:21.453Z,987.67
2019-03-05T09:56:33.208Z,987.67
2019-03-05T09:57:44.616Z,987.66
2019-03-05T09:58:55.864Z,987.55
2019-03-05T10:00:07.107Z,987.61
2019-03-05T10:01:18.362Z,987.63
2019-03-05T10:02:29.608Z,987.63
2019-03-05T10:03:40.862Z,987.62
2019-03-05T10:04:52.130Z,987.69
2019-03-05T10:06:03.403Z,987.62
2019-03-05T10:07:19.007Z,987.71
2019-03-05T10:08:32.527Z,987.64
2019-03-05T10:09:36.684Z,987.62
2019-03-05T10:10:47.958Z,987.58
2019-03-05T10:11:59.228Z,987.56
2019-03-05T10:13:13.110Z,987.55
2019-03-05T10:14:21.876Z,987.49
2019-03-05T10:15:33.141Z,987.40
2019-03-05T10:16:44.423Z,987.34
2019-03-05T10:17:55.688Z,987.35
2019-03-05T10:19:06.953Z,987.33
2019-03-05T10:20:18.229Z,987.32
2019-03-05T10:21:29.485Z,987.26
2019-03-05T10:22:40.737Z,987.26
2019-03-05T10:23:51.998Z,987.33
2019-03-05T10:25:06.216Z,987.36
2019-03-05T10:26:14.627Z,987.43
2019-03-05T10:27:25.885Z,987.44
2019-03-05T10:28:37.151Z,987.46
2019-03-05T10:29:48.420Z,987.46
2019-03-05T10:30:59.702Z,987.48
2019-03-05T10:32:10.981Z,987.44
2019-03-05T10:33:22.236Z,987.46
2019-03-05T10:34:33.512Z,987.49
2019-03-05T10:35:44.784Z,987.49
2019-03-05T10:36:56.057Z,987.44
2019-03-05T10:38:07.337Z,987.53
2019-03-05T10:39:29.643Z,987.53
2019-03-05T10:40:29.369Z,987.61
2019-03-05T10:41:42.910Z,987.64
2019-03-05T10:42:51.897Z,987.65
2019-03-05T10:44:03.172Z,987.74
2019-03-05T10:45:14.738Z,987.69
2019-03-05T10:46:26.015Z,987.72
2019-03-05T10:47:37.283Z,987.82
2019-03-05T10:48:48.621Z,987.76
2019-03-05T10:49:59.393Z,987.71
2019-03-05T10:51:10.686Z,987.86
2019-03-05T10:52:21.961Z,987.87
2019-03-05T10:53:33.230Z,987.90
2019-03-05T10:54:44.630Z,987.98
2019-03-05T10:55:55.890Z,988.01
2019-03-05T10:57:07.173Z,988.08
2019-03-05T10:58:18.440Z,988.15
2019-03-05T10:59:29.720Z,988.29
2019-03-05T11:00:40.978Z,988.18
2019-03-05T11:01:52.257Z,988.25
2019-03-05T11:03:03.823Z,988.20
2019-03-05T11:04:15.094Z,988.15
2019-03-05T11:05:26.371Z,988.17
2019-03-05T11:06:37.645Z,988.16
2019-03-05T11:07:48.920Z,988.12
2019-03-05T11:09:00.185Z,988.14
2019-03-05T11:10:11.447Z,988.14
2019-03-05T11:11:22.729Z,988.09
2019-03-05T11:12:33.998Z,988.12
2019-03-05T11:13:45.260Z,988.04
2019-03-05T11:14:56.628Z,988.00
2019-03-05T11:16:07.898Z,988.00
2019-03-05T11:17:19.194Z,987.94
2019-03-05T11:18:30.614Z,987.95
2019-03-05T11:19:41.907Z,987.95
2019-03-05T11:20:53.162Z,987.96
2019-03-05T11:22:04.431Z,987.93
2019-03-05T11:23:15.721Z,987.97
2019-03-05T11:24:26.993Z,987.91
2019-03-05T11:25:38.270Z,987.94
2019-03-05T11:26:49.547Z,987.97
2019-03-05T11:28:00.834Z,988.04
2019-03-05T11:29:12.112Z,987.99
2019-03-05T11:30:23.377Z,987.90
2019-03-05T11:31:34.651Z,987.85
2019-03-05T11:32:45.933Z,987.84
2019-03-05T11:33:57.220Z,987.75
2019-03-05T11:35:08.622Z,987.67
2019-03-05T11:36:19.915Z,987.54
2019-03-05T11:37:31.215Z,987.53
2019-03-05T11:38:42.623Z,987.53
2019-03-05T11:39:55.486Z,987.45
2019-03-05T11:41:05.210Z,987.34
2019-03-05T11:42:16.622Z,987.29
2019-03-05T11:43:27.427Z,987.28
2019-03-05T11:44:38.740Z,987.16
2019-03-05T11:45:50.020Z,987.17
2019-03-05T11:47:01.319Z,987.18
2019-03-05T11:48:13.619Z,987.17
2019-03-05T11:49:24.907Z,987.15
2019-03-05T11:50:36.218Z,987.08
2019-03-05T11:51:47.521Z,987.19
2019-03-05T11:52:58.804Z,987.23
2019-03-05T11:54:11.098Z,987.26
2019-03-05T11:55:23.388Z,987.39
2019-03-05T11:56:34.691Z,987.31
2019-03-05T11:57:46.008Z,987.31
2019-03-05T11:58:57.311Z,987.25
2019-03-05T12:00:09.605Z,987.34
2019-03-05T12:01:21.893Z,987.33
2019-03-05T12:02:33.184Z,987.33
2019-03-05T12:03:44.642Z,987.44
2019-03-05T12:04:55.443Z,987.46
2019-03-05T12:06:06.725Z,987.56
2019-03-05T12:07:18.024Z,987.56
2019-03-05T12:08:29.317Z,987.57
2019-03-05T12:09:40.646Z,987.64
2019-03-05T12:10:51.924Z,987.64
2019-03-05T12:12:03.216Z,987.67
2019-03-05T12:13:14.806Z,987.72
2019-03-05T12:14:26.086Z,987.76
2019-03-05T12:15:37.386Z,987.84
2019-03-05T12:16:48.688Z,987.84
2019-03-05T12:17:59.962Z,987.88
2019-03-05T12:19:11.272Z,988.04
2019-03-05T12:20:22.633Z,987.97
2019-03-05T12:21:33.917Z,987.98
2019-03-05T12:22:45.210Z,987.99
2019-03-05T12:23:56.655Z,987.96
2019-03-05T12:25:07.948Z,987.94
2019-03-05T12:26:19.224Z,987.91
2019-03-05T12:27:30.652Z,987.87
2019-03-05T12:28:42.453Z,987.76
2019-03-05T12:29:53.252Z,987.75
2019-03-05T12:31:04.637Z,987.65
2019-03-05T12:32:15.941Z,987.58
2019-03-05T12:33:27.227Z,987.57
2019-03-05T12:34:38.640Z,987.47
2019-03-05T12:35:49.937Z,987.41
2019-03-05T12:37:01.228Z,987.40
2019-03-05T12:38:12.526Z,987.50
2019-03-05T12:39:23.863Z,987.50
2019-03-05T12:40:35.144Z,987.40
2019-03-05T12:41:47.440Z,987.23
2019-03-05T12:42:58.744Z,987.15
2019-03-05T12:44:10.057Z,987.18
2019-03-05T12:45:21.394Z,987.22
2019-03-05T12:46:32.683Z,987.23
2019-03-05T12:47:44.006Z,987.44
2019-03-05T12:48:55.311Z,987.44
2019-03-05T12:50:06.642Z,987.26
2019-03-05T12:51:17.974Z,987.29
2019-03-05T12:52:29.306Z,987.10
2019-03-05T12:53:40.621Z,986.92
2019-03-05T12:54:51.953Z,986.68
2019-03-05T12:56:03.283Z,986.59
2019-03-05T12:57:14.639Z,986.57
2019-03-05T12:58:25.950Z,986.56
2019-03-05T12:59:37.279Z,986.65
2019-03-05T13:00:48.631Z,986.79
2019-03-05T13:01:59.971Z,986.78
2019-03-05T13:03:11.311Z,986.85
2019-03-05T13:04:22.648Z,987.04
2019-03-05T13:05:33.990Z,986.68
2019-03-05T13:06:45.344Z,986.33
2019-03-05T13:07:57.742Z,986.25
2019-03-05T13:09:08.085Z,986.06
2019-03-05T13:10:19.495Z,985.50
2019-03-05T13:11:30.931Z,984.94
2019-03-05T13:12:42.381Z,984.71
2019-03-05T13:14:05.723Z,984.30
2019-03-05T13:15:05.344Z,984.19
2019-03-05T13:16:16.863Z,984.27
2019-03-05T13:17:28.414Z,984.41
2019-03-05T13:18:39.971Z,984.57
2019-03-05T13:19:53.493Z,984.70
2019-03-05T13:21:03.568Z,984.79
2019-03-05T13:22:14.175Z,984.76
2019-03-05T13:23:25.720Z,984.85
2019-03-05T13:24:38.256Z,984.96
2019-03-05T13:25:49.801Z,985.00
2019-03-05T13:27:01.346Z,984.82
2019-03-05T13:28:12.849Z,984.90
2019-03-05T13:29:24.361Z,984.97
2019-03-05T13:30:35.371Z,984.93
2019-03-05T13:31:46.871Z,984.77
2019-03-05T13:32:59.062Z,984.84
2019-03-05T13:34:09.825Z,984.84
2019-03-05T13:35:25.226Z,984.75
2019-03-05T13:36:32.756Z,984.35
2019-03-05T13:37:44.234Z,983.73
2019-03-05T13:38:55.687Z,983.47
2019-03-05T13:40:07.155Z,983.41
2019-03-05T13:41:18.665Z,983.15
2019-03-05T13:42:33.415Z,983.26
2019-03-05T13:43:41.643Z,982.84
2019-03-05T13:44:53.171Z,983.11
2019-03-05T13:46:04.729Z,982.73
2019-03-05T13:47:16.318Z,982.48
2019-03-05T13:48:27.898Z,982.29
2019-03-05T13:49:40.859Z,982.15
2019-03-05T13:50:51.069Z,982.71
2019-03-05T13:52:02.683Z,983.33
2019-03-05T13:53:15.138Z,983.49
2019-03-05T13:54:25.861Z,982.89
2019-03-05T13:55:37.477Z,982.80
2019-03-05T13:56:49.098Z,982.86
2019-03-05T13:58:00.729Z,983.17
2019-03-05T13:59:12.357Z,983.17
2019-03-05T14:00:24.010Z,983.13
2019-03-05T14:01:35.677Z,983.12
2019-03-05T14:02:53.025Z,982.82
2019-03-05T14:03:59.034Z,982.59
2019-03-05T14:05:10.914Z,982.58
2019-03-05T14:06:22.425Z,982.65
2019-03-05T14:07:34.152Z,982.73
2019-03-05T14:08:45.855Z,982.65
2019-03-05T14:09:57.545Z,982.84
2019-03-05T14:11:09.296Z,982.84
2019-03-05T14:12:21.019Z,982.99
2019-03-05T14:13:32.773Z,982.99
2019-03-05T14:14:44.644Z,982.95
2019-03-05T14:15:56.377Z,983.00
2019-03-05T14:17:08.155Z,983.08
2019-03-05T14:18:19.922Z,982.92
2019-03-05T14:19:31.685Z,982.88
2019-03-05T14:20:43.444Z,982.89
2019-03-05T14:21:55.231Z,982.97
2019-03-05T14:23:06.999Z,983.01
2019-03-05T14:24:18.781Z,982.68
2019-03-05T14:25:30.643Z,982.76
2019-03-05T14:26:42.350Z,983.10
2019-03-05T14:27:54.078Z,983.44
2019-03-05T14:29:06.791Z,983.79
2019-03-05T14:30:20.886Z,984.05
2019-03-05T14:31:30.115Z,984.49
2019-03-05T14:32:41.788Z,984.83
2019-03-05T14:33:53.438Z,984.95
2019-03-05T14:35:05.110Z,985.04
2019-03-05T14:36:16.714Z,985.16
2019-03-05T14:37:28.353Z,985.41
2019-03-05T14:38:39.953Z,985.52
2019-03-05T14:39:51.536Z,985.61
2019-03-05T14:41:03.243Z,985.77
2019-03-05T14:42:14.719Z,985.81
2019-03-05T14:43:26.291Z,985.98
2019-03-05T14:44:40.090Z,986.39
2019-03-05T14:45:49.467Z,986.56
2019-03-05T14:47:01.001Z,986.29
2019-03-05T14:48:12.628Z,986.14
2019-03-05T14:49:24.224Z,986.38
2019-03-05T14:50:35.773Z,986.25
2019-03-05T14:51:47.305Z,985.96
2019-03-05T14:52:58.880Z,985.80